Flight Track Log - Related Links

Times and Time Zones

All times are in EDT time to prevent confusion due to time zone crossing. See the SKW3460 flight status page for this flight to view local times or setup timezone preferences in your user account.

Time Position Orientation Groundspeed Altitude Reporting Facility
EDT Latitude Longitude Course Direction KTS MPH feet Rate Location/Type
Wed 09:44:22 AM 45.5825 -122.5625 106° East 152 175 800  Level Seattle Center
Wed 09:44:53 AM 45.5764 -122.5311 106° East 172 198 1,700 1,760 Climbing Seattle Center
Wed 09:45:37 AM 45.5697 -122.4869 102° East 191 220 3,000 2,091 Climbing Seattle Center
Wed 09:45:59 AM 45.5617 -122.4383 103° East 244 281 4,000 2,000 Climbing Seattle Center
Wed 09:46:37 AM 45.5556 -122.3919 101° East 227 261 5,000 2,182 Climbing Seattle Center
Wed 09:47:38 AM 45.4997 -122.3222 139° Southeast 279 321 7,600 2,607 Climbing Seattle Center
Wed 09:48:39 AM 45.4242 -122.2917 164° South 283 326 10,300 2,331 Climbing Seattle Center
Wed 09:49:39 AM 45.3425 -122.2617 166° South 298 343 12,300 1,983 Climbing Seattle Center
Wed 09:50:40 AM 45.2517 -122.2253 164° South 330 380 14,300 1,967 Climbing Seattle Center
Wed 09:51:41 AM 45.1536 -122.1878 165° South 358 412 16,300 2,083 Climbing Seattle Center
Wed 09:52:41 AM 45.0319 -122.1317 162° South 382 440 18,500 1,934 Climbing Seattle Center
Wed 09:53:42 AM 44.9286 -122.0608 154° Southeast 405 466 20,200 1,525 Climbing Seattle Center
Wed 09:54:43 AM 44.8367 -122.0011 155° Southeast 419 482 21,600 1,820 Climbing Seattle Center
Wed 09:55:44 AM 44.7100 -121.9156 154° Southeast 421 484 23,900 1,884 Climbing Seattle Center
Wed 09:56:44 AM 44.6194 -121.8567 155° Southeast 422 486 25,400 1,339 Climbing Seattle Center
Wed 09:57:45 AM 44.5133 -121.7872 155° Southeast 424 488 26,600 1,230 Climbing Seattle Center
Wed 09:58:46 AM 44.4025 -121.7156 155° Southeast 437 503 27,900 1,636 Climbing Seattle Center
Wed 09:59:46 AM 44.2678 -121.6283 155° Southeast 444 511 29,900 1,537 Climbing Seattle Center
Wed 10:00:47 AM 44.1564 -121.5550 155° Southeast 446 513 31,000 1,033 Climbing Seattle Center
Wed 10:01:48 AM 44.0461 -121.4836 155° Southeast 442 509 32,000 836 Climbing Seattle Center
Wed 10:02:49 AM 43.9325 -121.4086 155° Southeast 452 520 32,700 744 Climbing Seattle Center
Wed 10:03:49 AM 43.8114 -121.3336 156° South 463 533 33,500 893 Climbing Seattle Center
Wed 10:04:50 AM 43.6947 -121.2592 155° Southeast 463 533 34,500 984 Climbing Seattle Center
Wed 10:05:51 AM 43.5792 -121.1853 155° Southeast 457 526 35,500 984 Climbing Seattle Center
Wed 10:06:52 AM 43.4644 -121.1100 155° Southeast 457 526 36,500 744 Climbing Seattle Center
Wed 10:07:52 AM 43.3508 -121.0411 156° South 449 517 37,000 248 Climbing Seattle Center
Wed 10:08:53 AM 43.2333 -120.9669 155° Southeast 461 531 37,000  Level Seattle Center
Wed 10:09:54 AM 43.1097 -120.9100 161° South 471 542 37,000  Level Seattle Center
Wed 10:10:55 AM 42.9833 -120.8736 168° South 465 535 37,000  Level Seattle Center
Wed 10:11:56 AM 42.8564 -120.8361 168° South 465 535 37,000  Level Seattle Center
Wed 10:12:57 AM 42.7328 -120.7983 167° South 456 525 37,000  Level Seattle Center
Wed 10:13:57 AM 42.6083 -120.7606 167° South 455 524 37,000  Level Seattle Center
Wed 10:14:58 AM 42.4844 -120.7225 167° South 453 521 37,000  Level Seattle Center
Wed 10:15:59 AM 42.3617 -120.6883 168° South 451 519 37,000  Level Seattle Center
Wed 10:17:00 AM 42.2361 -120.6494 167° South 457 526 37,000  Level Seattle Center
Wed 10:18:01 AM 42.1108 -120.6136 168° South 457 526 37,000  Level Seattle Center
Wed 10:19:02 AM 41.9850 -120.5756 167° South 462 532 37,000  Level Seattle Center
Wed 10:20:02 AM 41.8572 -120.5394 168° South 466 536 37,000  Level Seattle Center
Wed 10:21:03 AM 41.7311 -120.5008 167° South 464 534 37,000  Level Seattle Center
Wed 10:22:04 AM 41.6047 -120.4639 168° South 463 533 37,000  Level Seattle Center
Wed 10:23:05 AM 41.4781 -120.4269 168° South 464 534 37,000  Level Seattle Center
Wed 10:24:06 AM 41.3489 -120.3900 168° South 471 542 37,000  Level Seattle Center
Wed 10:25:07 AM 41.1956 -120.3458 168° South 469 540 37,000  Level Seattle Center
Wed 10:26:08 AM 41.0675 -120.3094 168° South 469 540 37,000  Level Seattle Center
Wed 10:27:09 AM 40.9403 -120.2725 168° South 467 537 37,000  Level Seattle Center
Wed 10:28:09 AM 40.8108 -120.2392 169° South 471 542 37,000  Level Seattle Center
Wed 10:29:10 AM 40.6825 -120.2006 167° South 471 542 37,000  Level Seattle Center
Wed 10:30:11 AM 40.5503 -120.1658 169° South 472 543 37,000  Level Seattle Center
Wed 10:30:42 AM 40.5003 -120.1511 167° South 471 542 37,000  Level Oakland Center
Wed 10:31:43 AM 40.3467 -120.1094 168° South 470 541 37,000  Level Oakland Center
Wed 10:32:44 AM 40.2197 -120.0731 168° South 469 540 37,000  Level Oakland Center
Wed 10:33:45 AM 40.0919 -120.0383 168° South 469 540 37,000  Level Oakland Center
Wed 10:34:46 AM 39.9622 -120.0025 168° South 477 549 37,000  Level Oakland Center
Wed 10:35:47 AM 39.8339 -119.9675 168° South 474 545 37,000  Level Oakland Center
Wed 10:36:48 AM 39.7072 -119.9314 168° South 469 540 37,000  Level Oakland Center
Wed 10:37:50 AM 39.5789 -119.8978 169° South 469 540 37,000  Level Oakland Center
Wed 10:38:51 AM 39.4500 -119.8631 168° South 473 544 37,000  Level Oakland Center
Wed 10:39:52 AM 39.3217 -119.8281 168° South 474 545 37,000  Level Oakland Center
Wed 10:40:53 AM 39.1917 -119.7931 168° South 479 551 37,000  Level Oakland Center
Wed 10:41:54 AM 39.0361 -119.7511 168° South 479 551 37,000  Level Oakland Center
Wed 10:42:55 AM 38.9081 -119.7167 168° South 474 545 37,000  Level Oakland Center
Wed 10:43:56 AM 38.7792 -119.6833 169° South 471 542 37,000  Level Oakland Center
Wed 10:44:57 AM 38.6503 -119.6500 169° South 474 545 37,000  Level Oakland Center
Wed 10:45:58 AM 38.5219 -119.6153 168° South 473 544 37,000  Level Oakland Center
Wed 10:46:59 AM 38.4000 -119.5839 169° South 470 541 37,000  Level Oakland Center
Wed 10:48:01 AM 38.2708 -119.5503 168° South 471 542 37,000  Level Oakland Center
Wed 10:49:02 AM 38.1428 -119.5164 168° South 470 541 37,000  Level Oakland Center
Wed 10:50:03 AM 38.0175 -119.4819 168° South 465 535 37,000  Level Oakland Center
Wed 10:51:04 AM 37.8606 -119.4431 169° South 472 543 37,000  Level Oakland Center
Wed 10:52:05 AM 37.7322 -119.4122 169° South 469 540 37,000  Level Oakland Center
Wed 10:53:06 AM 37.6075 -119.3797 168° South 469 540 37,000  Level Oakland Center
Wed 10:54:07 AM 37.4914 -119.3492 168° South 470 541 37,000  Level Oakland Center
Wed 10:55:08 AM 37.3639 -119.3172 169° South 466 536 37,000  Level Oakland Center
Wed 10:56:10 AM 37.2106 -119.2764 168° South 469 540 37,000  Level Oakland Center
Wed 10:57:11 AM 37.0819 -119.2439 169° South 469 540 37,000  Level Oakland Center
Wed 10:58:12 AM 36.9528 -119.2114 169° South 472 543 37,000  Level Oakland Center
Wed 10:59:13 AM 36.8231 -119.1781 168° South 475 547 37,000  Level Oakland Center
Wed 11:00:14 AM 36.6933 -119.1469 169° South 474 545 37,000  Level Oakland Center
Wed 11:01:15 AM 36.5633 -119.1144 169° South 475 547 37,000  Level Oakland Center
Wed 11:02:16 AM 36.4317 -119.0808 168° South 481 554 37,000  Level Oakland Center
Wed 11:03:18 AM 36.3011 -119.0486 169° South 477 549 37,000  Level Oakland Center
Wed 11:04:19 AM 36.1711 -119.0181 169° South 475 547 37,000  Level Oakland Center
Wed 11:05:20 AM 36.0361 -119.0133 178° South 487 560 37,000  Level Oakland Center
Wed 11:06:21 AM 35.9011 -119.0125 180° South 487 560 37,000  Level Oakland Center
Wed 11:07:22 AM 35.7733 -118.9672 164° South 480 552 37,000 -49 Level Oakland Center
Wed 11:08:23 AM 35.6192 -118.9106 163° South 480 552 36,900 -551 Descending Oakland Center
Wed 11:09:00 AM 35.5394 -118.8819 164° South 483 556 36,100 -1,394 Descending Los Angeles Center
Wed 11:10:02 AM 35.4122 -118.8350 163° South 480 552 34,600 -1,355 Descending Los Angeles Center
Wed 11:11:04 AM 35.2897 -118.7897 163° South 465 535 33,300 -1,306 Descending Los Angeles Center
Wed 11:12:06 AM 35.1694 -118.7447 163° South 454 522 31,900 -1,113 Descending Los Angeles Center
Wed 11:13:08 AM 35.0567 -118.6733 153° Southeast 459 528 31,000 -1,113 Descending Los Angeles Center
Wed 11:14:10 AM 34.9739 -118.5589 131° Southeast 453 521 29,600 -1,790 Descending Los Angeles Center
Wed 11:15:12 AM 34.8789 -118.4219 130° Southeast 461 531 27,300 -2,032 Descending Los Angeles Center
Wed 11:16:14 AM 34.7969 -118.3022 130° Southeast 464 534 25,400 -1,742 Descending Los Angeles Center
Wed 11:17:16 AM 34.7156 -118.1867 131° Southeast 455 524 23,700 -1,597 Descending Los Angeles Center
Wed 11:18:18 AM 34.6389 -118.0739 130° Southeast 437 503 22,100 -1,597 Descending Los Angeles Center
Wed 11:19:20 AM 34.5817 -117.9547 120° Southeast 413 475 20,400 -1,839 Descending Los Angeles Center
Wed 11:20:22 AM 34.5181 -117.8178 119° Southeast 392 451 18,300 -1,790 Descending Los Angeles Center
Wed 11:21:24 AM 34.4697 -117.7111 119° Southeast 366 421 16,700 -1,597 Descending Los Angeles Center
Wed 11:22:26 AM 34.4231 -117.6117 120° Southeast 345 397 15,000 -1,694 Descending Los Angeles Center
Wed 11:23:28 AM 34.3761 -117.5050 118° Southeast 314 361 13,200 -1,306 Descending Los Angeles Center
Wed 11:24:30 AM 34.3308 -117.4319 127° Southeast 288 331 12,300 -1,355 Descending Los Angeles Center
Wed 11:25:32 AM 34.2533 -117.3972 160° South 276 318 10,400 -1,935 Descending Los Angeles Center
Wed 11:26:34 AM 34.1819 -117.3728 164° South 262 302 8,300 -2,274 Descending Los Angeles Center
Wed 11:27:36 AM 34.1128 -117.3589 171° South 249 287 5,700 -2,129 Descending Los Angeles Center
Wed 11:28:38 AM 34.0619 -117.4042 216° Southwest 238 274 3,900 -1,403 Descending Los Angeles Center
Wed 11:29:40 AM 34.0558 -117.4753 264° West 222 255 2,800 -1,113 Descending Los Angeles Center
Wed 11:30:42 AM 34.0578 -117.5478 272° West 197 227 1,600 -931 Descending Los Angeles Center
Wed 11:31:36 AM 34.0667 -117.6000 282° West 256 295 1,000 -667 Descending Southern California TRACON
Wed 11:33:00 AM 34.0500 -117.6000 270° West  Level FlightAware Approximate
Wed 11:40:00 AM 34.0560 -117.6012 270° West  Level Estimated
Wed 11:41:00 AM 34.0500 -117.6000 270° West  Level FlightAware Approximate
Wed 11:42:00 AM 34.0560 -117.6012 270° West  Level Estimated

Login

Don't have an account? Register now (free) for customized features, flight alerts, and more!